sensor_id;sensor_type;location;lat;lon;timestamp;temperature;humidity
26595;DHT22;14238;49.496;8.154;2023-04-08T00:00:08;7.30;99.90
26595;DHT22;14238;49.496;8.154;2023-04-08T00:02:34;7.30;99.90
26595;DHT22;14238;49.496;8.154;2023-04-08T00:04:59;7.30;99.90
26595;DHT22;14238;49.496;8.154;2023-04-08T00:07:25;7.40;99.90
26595;DHT22;14238;49.496;8.154;2023-04-08T00:09:51;7.50;99.90
26595;DHT22;14238;49.496;8.154;2023-04-08T00:12:16;7.50;99.90
26595;DHT22;14238;49.496;8.154;2023-04-08T00:14:42;7.50;99.90
26595;DHT22;14238;49.496;8.154;2023-04-08T00:17:07;7.50;99.90
26595;DHT22;14238;49.496;8.154;2023-04-08T00:19:33;7.40;99.90
26595;DHT22;14238;49.496;8.154;2023-04-08T00:21:58;7.50;99.90
26595;DHT22;14238;49.496;8.154;2023-04-08T00:24:24;7.60;99.90
26595;DHT22;14238;49.496;8.154;2023-04-08T00:26:50;7.50;99.90
26595;DHT22;14238;49.496;8.154;2023-04-08T00:29:16;7.50;99.90
26595;DHT22;14238;49.496;8.154;2023-04-08T00:31:41;7.40;99.90
26595;DHT22;14238;49.496;8.154;2023-04-08T00:34:07;7.40;99.90
26595;DHT22;14238;49.496;8.154;2023-04-08T00:36:33;7.40;99.90
26595;DHT22;14238;49.496;8.154;2023-04-08T00:39:00;7.50;99.90
26595;DHT22;14238;49.496;8.154;2023-04-08T00:41:26;7.50;99.90
26595;DHT22;14238;49.496;8.154;2023-04-08T00:43:52;7.50;99.90
26595;DHT22;14238;49.496;8.154;2023-04-08T00:46:18;7.60;99.90
26595;DHT22;14238;49.496;8.154;2023-04-08T00:48:44;7.60;99.90
26595;DHT22;14238;49.496;8.154;2023-04-08T00:51:09;7.50;99.90
26595;DHT22;14238;49.496;8.154;2023-04-08T00:53:35;7.50;99.90
26595;DHT22;14238;49.496;8.154;2023-04-08T00:56:01;7.40;99.90
26595;DHT22;14238;49.496;8.154;2023-04-08T00:58:27;7.50;99.90
26595;DHT22;14238;49.496;8.154;2023-04-08T01:00:59;7.60;99.90
26595;DHT22;14238;49.496;8.154;2023-04-08T01:06:28;7.50;99.90
26595;DHT22;14238;49.496;8.154;2023-04-08T01:08:57;7.50;99.90
26595;DHT22;14238;49.496;8.154;2023-04-08T01:11:24;7.50;99.90
26595;DHT22;14238;49.496;8.154;2023-04-08T01:13:53;7.60;99.90
26595;DHT22;14238;49.496;8.154;2023-04-08T01:16:21;7.60;99.90
26595;DHT22;14238;49.496;8.154;2023-04-08T01:18:49;7.60;99.90
26595;DHT22;14238;49.496;8.154;2023-04-08T01:21:17;7.60;99.90
26595;DHT22;14238;49.496;8.154;2023-04-08T01:24:00;7.60;99.90
26595;DHT22;14238;49.496;8.154;2023-04-08T01:26:30;7.60;99.90
26595;DHT22;14238;49.496;8.154;2023-04-08T01:28:58;7.60;99.90
26595;DHT22;14238;49.496;8.154;2023-04-08T01:31:25;7.60;99.90
26595;DHT22;14238;49.496;8.154;2023-04-08T01:33:52;7.60;99.90
26595;DHT22;14238;49.496;8.154;2023-04-08T01:36:19;7.60;99.90
26595;DHT22;14238;49.496;8.154;2023-04-08T01:38:46;7.60;99.90
26595;DHT22;14238;49.496;8.154;2023-04-08T01:41:12;7.60;99.90
26595;DHT22;14238;49.496;8.154;2023-04-08T01:43:42;7.60;99.90
26595;DHT22;14238;49.496;8.154;2023-04-08T01:46:09;7.60;99.90
26595;DHT22;14238;49.496;8.154;2023-04-08T01:48:37;7.60;99.90
26595;DHT22;14238;49.496;8.154;2023-04-08T01:51:04;7.60;99.90
26595;DHT22;14238;49.496;8.154;2023-04-08T01:53:30;7.60;99.90
26595;DHT22;14238;49.496;8.154;2023-04-08T01:56:10;7.60;99.90
26595;DHT22;14238;49.496;8.154;2023-04-08T01:58:46;7.50;99.90
26595;DHT22;14238;49.496;8.154;2023-04-08T02:01:16;7.50;99.90
26595;DHT22;14238;49.496;8.154;2023-04-08T02:03:44;7.50;99.90
26595;DHT22;14238;49.496;8.154;2023-04-08T02:06:10;7.50;99.90
26595;DHT22;14238;49.496;8.154;2023-04-08T02:08:36;7.40;99.90
26595;DHT22;14238;49.496;8.154;2023-04-08T02:11:02;7.40;99.90
26595;DHT22;14238;49.496;8.154;2023-04-08T02:13:29;7.40;99.90
26595;DHT22;14238;49.496;8.154;2023-04-08T02:16:15;7.40;99.90
26595;DHT22;14238;49.496;8.154;2023-04-08T02:18:44;7.40;99.90
26595;DHT22;14238;49.496;8.154;2023-04-08T02:21:14;7.40;99.90
26595;DHT22;14238;49.496;8.154;2023-04-08T02:23:41;7.30;99.90
26595;DHT22;14238;49.496;8.154;2023-04-08T02:26:13;7.30;99.90
26595;DHT22;14238;49.496;8.154;2023-04-08T02:28:40;7.30;99.90
26595;DHT22;14238;49.496;8.154;2023-04-08T02:31:09;7.30;99.90
26595;DHT22;14238;49.496;8.154;2023-04-08T02:33:38;7.40;99.90
26595;DHT22;14238;49.496;8.154;2023-04-08T02:36:05;7.40;99.90
26595;DHT22;14238;49.496;8.154;2023-04-08T02:38:31;7.40;99.90
26595;DHT22;14238;49.496;8.154;2023-04-08T02:40:57;7.40;99.90
26595;DHT22;14238;49.496;8.154;2023-04-08T02:43:23;7.40;99.90
26595;DHT22;14238;49.496;8.154;2023-04-08T02:45:59;7.40;99.90
26595;DHT22;14238;49.496;8.154;2023-04-08T02:48:27;7.40;99.90
26595;DHT22;14238;49.496;8.154;2023-04-08T02:50:53;7.40;99.90
26595;DHT22;14238;49.496;8.154;2023-04-08T02:53:19;7.40;99.90
26595;DHT22;14238;49.496;8.154;2023-04-08T02:55:44;7.40;99.90
26595;DHT22;14238;49.496;8.154;2023-04-08T02:58:10;7.50;99.90
26595;DHT22;14238;49.496;8.154;2023-04-08T03:00:35;7.50;99.90
26595;DHT22;14238;49.496;8.154;2023-04-08T03:03:04;7.50;99.90
26595;DHT22;14238;49.496;8.154;2023-04-08T03:05:29;7.50;99.90
26595;DHT22;14238;49.496;8.154;2023-04-08T03:07:55;7.50;99.90
26595;DHT22;14238;49.496;8.154;2023-04-08T03:10:20;7.50;99.90
26595;DHT22;14238;49.496;8.154;2023-04-08T03:12:46;7.50;99.90
26595;DHT22;14238;49.496;8.154;2023-04-08T03:15:11;7.50;99.90
26595;DHT22;14238;49.496;8.154;2023-04-08T03:17:37;7.50;99.90
26595;DHT22;14238;49.496;8.154;2023-04-08T03:20:03;7.40;99.90
26595;DHT22;14238;49.496;8.154;2023-04-08T03:22:32;7.40;99.90
26595;DHT22;14238;49.496;8.154;2023-04-08T03:24:58;7.40;99.90
26595;DHT22;14238;49.496;8.154;2023-04-08T03:27:23;7.40;99.90
26595;DHT22;14238;49.496;8.154;2023-04-08T03:29:49;7.50;99.90
26595;DHT22;14238;49.496;8.154;2023-04-08T03:32:15;7.40;99.90
26595;DHT22;14238;49.496;8.154;2023-04-08T03:34:40;7.40;99.90
26595;DHT22;14238;49.496;8.154;2023-04-08T03:37:06;7.50;99.90
26595;DHT22;14238;49.496;8.154;2023-04-08T03:39:32;7.50;99.90
26595;DHT22;14238;49.496;8.154;2023-04-08T03:41:57;7.50;99.90
26595;DHT22;14238;49.496;8.154;2023-04-08T03:44:25;7.50;99.90
26595;DHT22;14238;49.496;8.154;2023-04-08T03:46:51;7.50;99.90
26595;DHT22;14238;49.496;8.154;2023-04-08T03:49:17;7.50;99.90
26595;DHT22;14238;49.496;8.154;2023-04-08T03:51:42;7.50;99.90
26595;DHT22;14238;49.496;8.154;2023-04-08T03:54:08;7.50;99.90
26595;DHT22;14238;49.496;8.154;2023-04-08T03:56:34;7.50;99.90
26595;DHT22;14238;49.496;8.154;2023-04-08T03:58:59;7.50;99.90
26595;DHT22;14238;49.496;8.154;2023-04-08T04:01:25;7.50;99.90
26595;DHT22;14238;49.496;8.154;2023-04-08T04:03:50;7.50;99.90
26595;DHT22;14238;49.496;8.154;2023-04-08T04:06:16;7.40;99.90
26595;DHT22;14238;49.496;8.154;2023-04-08T04:08:41;7.50;99.90
26595;DHT22;14238;49.496;8.154;2023-04-08T04:11:07;7.40;99.90
26595;DHT22;14238;49.496;8.154;2023-04-08T04:13:32;7.50;99.90
26595;DHT22;14238;49.496;8.154;2023-04-08T04:15:58;7.50;99.90
26595;DHT22;14238;49.496;8.154;2023-04-08T04:18:24;7.50;99.90
26595;DHT22;14238;49.496;8.154;2023-04-08T04:20:49;7.50;99.90
26595;DHT22;14238;49.496;8.154;2023-04-08T04:23:15;7.40;99.90
26595;DHT22;14238;49.496;8.154;2023-04-08T04:25:41;7.40;99.90
26595;DHT22;14238;49.496;8.154;2023-04-08T04:28:06;7.40;99.90
26595;DHT22;14238;49.496;8.154;2023-04-08T04:30:36;7.40;99.90
26595;DHT22;14238;49.496;8.154;2023-04-08T04:33:02;7.40;99.90
26595;DHT22;14238;49.496;8.154;2023-04-08T04:35:27;7.40;99.90
26595;DHT22;14238;49.496;8.154;2023-04-08T04:37:53;7.40;99.90
26595;DHT22;14238;49.496;8.154;2023-04-08T04:40:18;7.30;99.90
26595;DHT22;14238;49.496;8.154;2023-04-08T04:42:44;7.40;99.90
26595;DHT22;14238;49.496;8.154;2023-04-08T04:45:10;7.30;99.90
26595;DHT22;14238;49.496;8.154;2023-04-08T04:47:35;7.30;99.90
26595;DHT22;14238;49.496;8.154;2023-04-08T04:50:01;7.30;99.90
26595;DHT22;14238;49.496;8.154;2023-04-08T04:52:26;7.40;99.90
26595;DHT22;14238;49.496;8.154;2023-04-08T04:54:52;7.40;99.90
26595;DHT22;14238;49.496;8.154;2023-04-08T04:57:17;7.40;99.90
26595;DHT22;14238;49.496;8.154;2023-04-08T04:59:43;7.40;99.90
26595;DHT22;14238;49.496;8.154;2023-04-08T05:02:08;7.40;99.90
26595;DHT22;14238;49.496;8.154;2023-04-08T05:04:34;7.40;99.90
26595;DHT22;14238;49.496;8.154;2023-04-08T05:07:00;7.40;99.90
26595;DHT22;14238;49.496;8.154;2023-04-08T05:09:25;7.40;99.90
26595;DHT22;14238;49.496;8.154;2023-04-08T05:11:51;7.40;99.90
26595;DHT22;14238;49.496;8.154;2023-04-08T05:14:16;7.40;99.90
26595;DHT22;14238;49.496;8.154;2023-04-08T05:16:42;7.40;99.90
26595;DHT22;14238;49.496;8.154;2023-04-08T05:19:08;7.40;99.90
26595;DHT22;14238;49.496;8.154;2023-04-08T05:21:35;7.40;99.90
26595;DHT22;14238;49.496;8.154;2023-04-08T05:24:00;7.40;99.90
26595;DHT22;14238;49.496;8.154;2023-04-08T05:26:26;7.40;99.90
26595;DHT22;14238;49.496;8.154;2023-04-08T05:28:53;7.40;99.90
26595;DHT22;14238;49.496;8.154;2023-04-08T05:31:19;7.40;99.90
26595;DHT22;14238;49.496;8.154;2023-04-08T05:33:45;7.50;99.90
26595;DHT22;14238;49.496;8.154;2023-04-08T05:36:12;7.50;99.90
26595;DHT22;14238;49.496;8.154;2023-04-08T05:38:38;7.50;99.90
26595;DHT22;14238;49.496;8.154;2023-04-08T05:41:04;7.50;99.90
26595;DHT22;14238;49.496;8.154;2023-04-08T05:43:32;7.50;99.90
26595;DHT22;14238;49.496;8.154;2023-04-08T05:45:57;7.60;99.90
26595;DHT22;14238;49.496;8.154;2023-04-08T05:48:23;7.60;99.90
26595;DHT22;14238;49.496;8.154;2023-04-08T05:50:48;7.60;99.90
26595;DHT22;14238;49.496;8.154;2023-04-08T05:53:14;7.60;99.90
26595;DHT22;14238;49.496;8.154;2023-04-08T05:55:40;7.70;99.90
26595;DHT22;14238;49.496;8.154;2023-04-08T05:58:06;7.70;99.90
26595;DHT22;14238;49.496;8.154;2023-04-08T06:00:32;7.70;99.90
26595;DHT22;14238;49.496;8.154;2023-04-08T06:02:57;7.70;99.90
26595;DHT22;14238;49.496;8.154;2023-04-08T06:05:23;7.70;99.90
26595;DHT22;14238;49.496;8.154;2023-04-08T06:07:49;7.70;99.90
26595;DHT22;14238;49.496;8.154;2023-04-08T06:10:14;7.80;99.90
26595;DHT22;14238;49.496;8.154;2023-04-08T06:12:40;7.80;99.90
26595;DHT22;14238;49.496;8.154;2023-04-08T06:15:07;7.80;99.90
26595;DHT22;14238;49.496;8.154;2023-04-08T06:17:35;7.80;99.90
26595;DHT22;14238;49.496;8.154;2023-04-08T06:20:02;7.80;99.90
26595;DHT22;14238;49.496;8.154;2023-04-08T06:22:28;7.80;99.90
26595;DHT22;14238;49.496;8.154;2023-04-08T06:24:54;7.80;99.90
26595;DHT22;14238;49.496;8.154;2023-04-08T06:27:19;7.80;99.90
26595;DHT22;14238;49.496;8.154;2023-04-08T06:29:45;7.80;99.90
26595;DHT22;14238;49.496;8.154;2023-04-08T06:32:12;7.80;99.90
26595;DHT22;14238;49.496;8.154;2023-04-08T06:34:37;7.80;99.90
26595;DHT22;14238;49.496;8.154;2023-04-08T06:37:03;7.90;99.90
26595;DHT22;14238;49.496;8.154;2023-04-08T06:39:29;7.90;99.90
26595;DHT22;14238;49.496;8.154;2023-04-08T06:41:54;8.10;99.90
26595;DHT22;14238;49.496;8.154;2023-04-08T06:44:20;8.10;99.90
26595;DHT22;14238;49.496;8.154;2023-04-08T06:46:47;8.20;99.90
26595;DHT22;14238;49.496;8.154;2023-04-08T06:49:12;8.30;99.90
26595;DHT22;14238;49.496;8.154;2023-04-08T06:51:38;8.20;99.90
26595;DHT22;14238;49.496;8.154;2023-04-08T06:54:03;8.30;99.90
26595;DHT22;14238;49.496;8.154;2023-04-08T06:56:29;8.30;99.90
26595;DHT22;14238;49.496;8.154;2023-04-08T06:58:55;8.30;99.90
26595;DHT22;14238;49.496;8.154;2023-04-08T07:01:20;8.40;99.90
26595;DHT22;14238;49.496;8.154;2023-04-08T07:03:46;8.40;99.90
26595;DHT22;14238;49.496;8.154;2023-04-08T07:06:12;8.50;99.90
26595;DHT22;14238;49.496;8.154;2023-04-08T07:08:37;8.50;99.90
26595;DHT22;14238;49.496;8.154;2023-04-08T07:11:03;8.50;99.90
26595;DHT22;14238;49.496;8.154;2023-04-08T07:13:29;8.60;99.90
26595;DHT22;14238;49.496;8.154;2023-04-08T07:15:55;8.70;99.90
26595;DHT22;14238;49.496;8.154;2023-04-08T07:18:20;8.70;99.90
26595;DHT22;14238;49.496;8.154;2023-04-08T07:20:50;8.80;99.90
26595;DHT22;14238;49.496;8.154;2023-04-08T07:23:17;8.70;99.90
26595;DHT22;14238;49.496;8.154;2023-04-08T07:25:42;8.70;99.90
26595;DHT22;14238;49.496;8.154;2023-04-08T07:28:08;8.70;99.90
26595;DHT22;14238;49.496;8.154;2023-04-08T07:30:33;8.80;99.90
26595;DHT22;14238;49.496;8.154;2023-04-08T07:32:59;8.80;99.90
26595;DHT22;14238;49.496;8.154;2023-04-08T07:35:25;8.90;99.90
26595;DHT22;14238;49.496;8.154;2023-04-08T07:37:51;9.00;99.90
26595;DHT22;14238;49.496;8.154;2023-04-08T07:40:17;9.10;99.90
26595;DHT22;14238;49.496;8.154;2023-04-08T07:42:43;9.10;99.90
26595;DHT22;14238;49.496;8.154;2023-04-08T07:45:09;9.00;99.90
26595;DHT22;14238;49.496;8.154;2023-04-08T07:47:34;9.10;99.90
26595;DHT22;14238;49.496;8.154;2023-04-08T07:50:01;9.20;99.90
26595;DHT22;14238;49.496;8.154;2023-04-08T07:52:26;9.20;99.90
26595;DHT22;14238;49.496;8.154;2023-04-08T07:54:54;9.20;99.90
26595;DHT22;14238;49.496;8.154;2023-04-08T07:57:20;9.30;99.90
26595;DHT22;14238;49.496;8.154;2023-04-08T07:59:45;9.30;99.90
26595;DHT22;14238;49.496;8.154;2023-04-08T08:02:11;9.40;99.90
26595;DHT22;14238;49.496;8.154;2023-04-08T08:04:36;9.50;99.90
26595;DHT22;14238;49.496;8.154;2023-04-08T08:07:02;9.60;99.90
26595;DHT22;14238;49.496;8.154;2023-04-08T08:09:27;9.70;99.90
26595;DHT22;14238;49.496;8.154;2023-04-08T08:11:53;9.70;99.90
26595;DHT22;14238;49.496;8.154;2023-04-08T08:14:18;9.60;99.90
26595;DHT22;14238;49.496;8.154;2023-04-08T08:16:44;9.60;99.90
26595;DHT22;14238;49.496;8.154;2023-04-08T08:19:09;9.50;99.90
26595;DHT22;14238;49.496;8.154;2023-04-08T08:21:36;9.60;99.90
26595;DHT22;14238;49.496;8.154;2023-04-08T08:24:02;9.60;99.90
26595;DHT22;14238;49.496;8.154;2023-04-08T08:26:27;9.60;99.90
26595;DHT22;14238;49.496;8.154;2023-04-08T08:28:53;9.70;99.90
26595;DHT22;14238;49.496;8.154;2023-04-08T08:31:19;9.70;99.90
26595;DHT22;14238;49.496;8.154;2023-04-08T08:33:45;9.90;99.90
26595;DHT22;14238;49.496;8.154;2023-04-08T08:36:11;10.10;99.90
26595;DHT22;14238;49.496;8.154;2023-04-08T08:38:37;10.00;99.90
26595;DHT22;14238;49.496;8.154;2023-04-08T08:41:03;10.10;99.90
26595;DHT22;14238;49.496;8.154;2023-04-08T08:43:29;10.20;99.90
26595;DHT22;14238;49.496;8.154;2023-04-08T08:45:58;10.60;99.90
26595;DHT22;14238;49.496;8.154;2023-04-08T08:48:24;10.50;99.90
26595;DHT22;14238;49.496;8.154;2023-04-08T08:50:50;10.40;99.90
26595;DHT22;14238;49.496;8.154;2023-04-08T08:53:15;10.50;99.90
26595;DHT22;14238;49.496;8.154;2023-04-08T08:55:41;10.60;99.90
26595;DHT22;14238;49.496;8.154;2023-04-08T08:58:07;10.80;99.90
26595;DHT22;14238;49.496;8.154;2023-04-08T09:00:37;10.90;99.90
26595;DHT22;14238;49.496;8.154;2023-04-08T09:03:24;10.80;99.90
26595;DHT22;14238;49.496;8.154;2023-04-08T09:06:00;10.90;99.90
26595;DHT22;14238;49.496;8.154;2023-04-08T09:08:30;10.80;99.90
26595;DHT22;14238;49.496;8.154;2023-04-08T09:11:16;10.80;99.90
26595;DHT22;14238;49.496;8.154;2023-04-08T09:13:42;10.70;99.90
26595;DHT22;14238;49.496;8.154;2023-04-08T09:16:10;10.50;99.90
26595;DHT22;14238;49.496;8.154;2023-04-08T09:18:37;10.40;99.90
26595;DHT22;14238;49.496;8.154;2023-04-08T09:21:04;10.50;99.90
26595;DHT22;14238;49.496;8.154;2023-04-08T09:23:49;10.30;99.90
26595;DHT22;14238;49.496;8.154;2023-04-08T09:26:22;10.40;99.90
26595;DHT22;14238;49.496;8.154;2023-04-08T09:29:06;10.60;99.90
26595;DHT22;14238;49.496;8.154;2023-04-08T09:31:36;10.60;99.90
26595;DHT22;14238;49.496;8.154;2023-04-08T09:34:10;10.70;99.90
26595;DHT22;14238;49.496;8.154;2023-04-08T09:36:37;10.80;99.90
26595;DHT22;14238;49.496;8.154;2023-04-08T09:39:02;10.90;99.90
26595;DHT22;14238;49.496;8.154;2023-04-08T09:41:29;11.10;99.90
26595;DHT22;14238;49.496;8.154;2023-04-08T09:43:57;11.20;99.90
26595;DHT22;14238;49.496;8.154;2023-04-08T09:46:28;11.40;99.90
26595;DHT22;14238;49.496;8.154;2023-04-08T09:49:04;11.90;99.90
26595;DHT22;14238;49.496;8.154;2023-04-08T09:51:47;12.50;99.90
26595;DHT22;14238;49.496;8.154;2023-04-08T09:54:17;12.90;99.90
26595;DHT22;14238;49.496;8.154;2023-04-08T09:56:50;12.90;99.90
26595;DHT22;14238;49.496;8.154;2023-04-08T09:59:19;12.70;99.90
26595;DHT22;14238;49.496;8.154;2023-04-08T10:01:52;13.00;99.90
26595;DHT22;14238;49.496;8.154;2023-04-08T10:04:19;13.00;99.90
26595;DHT22;14238;49.496;8.154;2023-04-08T10:06:51;12.90;99.90
26595;DHT22;14238;49.496;8.154;2023-04-08T10:09:20;12.50;99.90
26595;DHT22;14238;49.496;8.154;2023-04-08T10:11:46;12.20;99.90
26595;DHT22;14238;49.496;8.154;2023-04-08T10:14:11;12.10;99.90
26595;DHT22;14238;49.496;8.154;2023-04-08T10:16:37;11.80;99.90
26595;DHT22;14238;49.496;8.154;2023-04-08T10:19:35;11.60;99.90
26595;DHT22;14238;49.496;8.154;2023-04-08T10:22:03;11.70;99.90
26595;DHT22;14238;49.496;8.154;2023-04-08T10:24:28;11.80;99.90
26595;DHT22;14238;49.496;8.154;2023-04-08T10:26:54;11.80;99.90
26595;DHT22;14238;49.496;8.154;2023-04-08T10:31:50;11.90;99.90
26595;DHT22;14238;49.496;8.154;2023-04-08T10:34:16;11.70;99.90
26595;DHT22;14238;49.496;8.154;2023-04-08T10:36:43;11.70;99.90
26595;DHT22;14238;49.496;8.154;2023-04-08T10:39:08;11.70;99.90
26595;DHT22;14238;49.496;8.154;2023-04-08T10:41:38;11.80;99.90
26595;DHT22;14238;49.496;8.154;2023-04-08T10:44:17;11.90;99.90
26595;DHT22;14238;49.496;8.154;2023-04-08T10:46:48;11.70;99.90
26595;DHT22;14238;49.496;8.154;2023-04-08T10:49:14;11.60;99.90
26595;DHT22;14238;49.496;8.154;2023-04-08T10:51:41;11.80;99.90
26595;DHT22;14238;49.496;8.154;2023-04-08T10:54:10;11.80;99.90
26595;DHT22;14238;49.496;8.154;2023-04-08T10:56:46;11.80;99.90
26595;DHT22;14238;49.496;8.154;2023-04-08T10:59:12;11.70;99.90
26595;DHT22;14238;49.496;8.154;2023-04-08T11:01:41;11.60;99.90
26595;DHT22;14238;49.496;8.154;2023-04-08T11:04:16;11.60;99.90
26595;DHT22;14238;49.496;8.154;2023-04-08T11:06:47;11.50;99.90
26595;DHT22;14238;49.496;8.154;2023-04-08T11:09:14;11.50;99.90
26595;DHT22;14238;49.496;8.154;2023-04-08T11:11:41;11.60;99.90
26595;DHT22;14238;49.496;8.154;2023-04-08T11:14:07;11.70;99.90
26595;DHT22;14238;49.496;8.154;2023-04-08T11:16:33;11.90;99.90
26595;DHT22;14238;49.496;8.154;2023-04-08T11:19:02;12.10;99.90
26595;DHT22;14238;49.496;8.154;2023-04-08T11:21:35;12.30;99.90
26595;DHT22;14238;49.496;8.154;2023-04-08T11:24:05;12.40;99.90
26595;DHT22;14238;49.496;8.154;2023-04-08T11:26:32;12.40;99.90
26595;DHT22;14238;49.496;8.154;2023-04-08T11:28:57;12.20;99.90
26595;DHT22;14238;49.496;8.154;2023-04-08T11:31:25;12.20;99.90
26595;DHT22;14238;49.496;8.154;2023-04-08T11:33:52;12.30;99.90
26595;DHT22;14238;49.496;8.154;2023-04-08T11:36:18;12.30;99.90
26595;DHT22;14238;49.496;8.154;2023-04-08T11:38:46;12.20;99.90
26595;DHT22;14238;49.496;8.154;2023-04-08T11:41:12;12.00;99.90
26595;DHT22;14238;49.496;8.154;2023-04-08T11:43:38;12.10;99.90
26595;DHT22;14238;49.496;8.154;2023-04-08T11:46:11;11.90;99.90
26595;DHT22;14238;49.496;8.154;2023-04-08T11:48:38;11.90;99.90
26595;DHT22;14238;49.496;8.154;2023-04-08T11:51:07;11.90;99.90
26595;DHT22;14238;49.496;8.154;2023-04-08T11:53:34;12.00;99.90
26595;DHT22;14238;49.496;8.154;2023-04-08T11:56:23;12.20;99.90
26595;DHT22;14238;49.496;8.154;2023-04-08T11:58:49;12.80;99.90
26595;DHT22;14238;49.496;8.154;2023-04-08T12:01:16;13.00;99.90
26595;DHT22;14238;49.496;8.154;2023-04-08T12:04:00;13.70;99.90
26595;DHT22;14238;49.496;8.154;2023-04-08T12:06:26;13.40;99.90
26595;DHT22;14238;49.496;8.154;2023-04-08T12:08:53;13.60;99.90
26595;DHT22;14238;49.496;8.154;2023-04-08T12:11:19;13.90;99.90
26595;DHT22;14238;49.496;8.154;2023-04-08T12:13:45;14.10;99.90
26595;DHT22;14238;49.496;8.154;2023-04-08T12:16:10;13.50;99.90
26595;DHT22;14238;49.496;8.154;2023-04-08T12:18:36;13.20;99.90
26595;DHT22;14238;49.496;8.154;2023-04-08T12:21:02;13.10;99.90
26595;DHT22;14238;49.496;8.154;2023-04-08T12:23:28;13.20;99.90
26595;DHT22;14238;49.496;8.154;2023-04-08T12:25:53;13.20;99.90
26595;DHT22;14238;49.496;8.154;2023-04-08T12:28:19;13.10;99.90
26595;DHT22;14238;49.496;8.154;2023-04-08T12:30:44;12.90;99.90
26595;DHT22;14238;49.496;8.154;2023-04-08T12:33:11;12.90;99.90
26595;DHT22;14238;49.496;8.154;2023-04-08T12:35:36;12.70;99.90
26595;DHT22;14238;49.496;8.154;2023-04-08T12:38:02;12.80;99.90
26595;DHT22;14238;49.496;8.154;2023-04-08T12:40:27;12.90;99.90
26595;DHT22;14238;49.496;8.154;2023-04-08T12:42:53;13.10;99.90
26595;DHT22;14238;49.496;8.154;2023-04-08T12:45:18;13.40;99.90
26595;DHT22;14238;49.496;8.154;2023-04-08T12:47:44;14.00;99.90
26595;DHT22;14238;49.496;8.154;2023-04-08T12:50:09;14.30;99.90
26595;DHT22;14238;49.496;8.154;2023-04-08T12:52:35;14.80;99.90
26595;DHT22;14238;49.496;8.154;2023-04-08T12:55:00;15.10;99.90
26595;DHT22;14238;49.496;8.154;2023-04-08T12:57:26;14.50;99.90
26595;DHT22;14238;49.496;8.154;2023-04-08T12:59:53;14.30;99.90
26595;DHT22;14238;49.496;8.154;2023-04-08T13:02:19;14.60;99.90
26595;DHT22;14238;49.496;8.154;2023-04-08T13:04:44;14.30;99.90
26595;DHT22;14238;49.496;8.154;2023-04-08T13:07:10;14.10;99.90
26595;DHT22;14238;49.496;8.154;2023-04-08T13:09:36;14.20;99.90
26595;DHT22;14238;49.496;8.154;2023-04-08T13:12:01;14.30;99.90
26595;DHT22;14238;49.496;8.154;2023-04-08T13:14:27;13.90;99.90
26595;DHT22;14238;49.496;8.154;2023-04-08T13:16:53;13.40;99.90
26595;DHT22;14238;49.496;8.154;2023-04-08T13:19:19;13.40;99.90
26595;DHT22;14238;49.496;8.154;2023-04-08T13:21:44;13.50;99.90
26595;DHT22;14238;49.496;8.154;2023-04-08T13:24:10;13.50;99.90
26595;DHT22;14238;49.496;8.154;2023-04-08T13:26:35;13.60;99.90
26595;DHT22;14238;49.496;8.154;2023-04-08T13:29:01;13.60;99.90
26595;DHT22;14238;49.496;8.154;2023-04-08T13:31:26;13.60;99.90
26595;DHT22;14238;49.496;8.154;2023-04-08T13:33:52;14.00;99.90
26595;DHT22;14238;49.496;8.154;2023-04-08T13:36:17;14.50;99.90
26595;DHT22;14238;49.496;8.154;2023-04-08T13:38:43;14.50;99.90
26595;DHT22;14238;49.496;8.154;2023-04-08T13:41:10;15.00;99.90
26595;DHT22;14238;49.496;8.154;2023-04-08T13:43:36;15.30;99.90
26595;DHT22;14238;49.496;8.154;2023-04-08T13:46:01;15.40;99.90
26595;DHT22;14238;49.496;8.154;2023-04-08T13:48:27;15.40;99.90
26595;DHT22;14238;49.496;8.154;2023-04-08T13:50:52;15.10;99.90
26595;DHT22;14238;49.496;8.154;2023-04-08T13:53:18;15.20;99.90
26595;DHT22;14238;49.496;8.154;2023-04-08T13:55:43;15.00;99.90
26595;DHT22;14238;49.496;8.154;2023-04-08T13:58:09;14.60;99.90
26595;DHT22;14238;49.496;8.154;2023-04-08T14:00:34;14.20;99.90
26595;DHT22;14238;49.496;8.154;2023-04-08T14:03:00;13.90;99.90
26595;DHT22;14238;49.496;8.154;2023-04-08T14:05:26;13.60;99.90
26595;DHT22;14238;49.496;8.154;2023-04-08T14:07:51;13.50;99.90
26595;DHT22;14238;49.496;8.154;2023-04-08T14:10:17;13.50;99.90
26595;DHT22;14238;49.496;8.154;2023-04-08T14:12:42;13.50;99.90
26595;DHT22;14238;49.496;8.154;2023-04-08T14:15:08;13.50;99.90
26595;DHT22;14238;49.496;8.154;2023-04-08T14:17:34;13.60;99.90
26595;DHT22;14238;49.496;8.154;2023-04-08T14:20:00;13.70;99.90
26595;DHT22;14238;49.496;8.154;2023-04-08T14:22:26;13.90;99.90
26595;DHT22;14238;49.496;8.154;2023-04-08T14:24:51;14.20;99.90
26595;DHT22;14238;49.496;8.154;2023-04-08T14:27:17;14.20;99.90
26595;DHT22;14238;49.496;8.154;2023-04-08T14:29:42;13.90;99.90
26595;DHT22;14238;49.496;8.154;2023-04-08T14:32:08;13.80;99.90
26595;DHT22;14238;49.496;8.154;2023-04-08T14:34:33;13.70;99.90
26595;DHT22;14238;49.496;8.154;2023-04-08T14:36:59;13.40;99.90
26595;DHT22;14238;49.496;8.154;2023-04-08T14:39:25;13.50;99.90
26595;DHT22;14238;49.496;8.154;2023-04-08T14:41:51;13.30;99.90
26595;DHT22;14238;49.496;8.154;2023-04-08T14:44:16;13.00;99.90
26595;DHT22;14238;49.496;8.154;2023-04-08T14:46:42;13.00;99.90
26595;DHT22;14238;49.496;8.154;2023-04-08T14:49:08;13.00;99.90
26595;DHT22;14238;49.496;8.154;2023-04-08T14:51:33;13.00;99.90
26595;DHT22;14238;49.496;8.154;2023-04-08T14:54:02;12.90;99.90
26595;DHT22;14238;49.496;8.154;2023-04-08T14:56:27;12.60;99.90
26595;DHT22;14238;49.496;8.154;2023-04-08T14:58:53;12.70;99.90
26595;DHT22;14238;49.496;8.154;2023-04-08T15:01:18;12.70;99.90
26595;DHT22;14238;49.496;8.154;2023-04-08T15:03:44;12.70;99.90
26595;DHT22;14238;49.496;8.154;2023-04-08T15:06:10;12.70;99.90
26595;DHT22;14238;49.496;8.154;2023-04-08T15:08:41;12.60;99.90
26595;DHT22;14238;49.496;8.154;2023-04-08T15:11:07;12.60;99.90
26595;DHT22;14238;49.496;8.154;2023-04-08T15:13:33;12.50;99.90
26595;DHT22;14238;49.496;8.154;2023-04-08T15:16:00;12.50;99.90
26595;DHT22;14238;49.496;8.154;2023-04-08T15:18:26;12.60;99.90
26595;DHT22;14238;49.496;8.154;2023-04-08T15:20:52;12.40;99.90
26595;DHT22;14238;49.496;8.154;2023-04-08T15:23:17;12.30;99.90
26595;DHT22;14238;49.496;8.154;2023-04-08T15:25:43;12.20;99.90
26595;DHT22;14238;49.496;8.154;2023-04-08T15:28:08;12.20;99.90
26595;DHT22;14238;49.496;8.154;2023-04-08T15:30:34;12.20;99.90
26595;DHT22;14238;49.496;8.154;2023-04-08T15:33:01;12.20;99.90
26595;DHT22;14238;49.496;8.154;2023-04-08T15:35:27;12.10;99.90
26595;DHT22;14238;49.496;8.154;2023-04-08T15:37:53;12.10;99.90
26595;DHT22;14238;49.496;8.154;2023-04-08T15:40:19;12.00;99.90
26595;DHT22;14238;49.496;8.154;2023-04-08T15:42:44;12.00;99.90